If you wish to contribute or participate in the discussions about articles you are invited to join SKYbrary as a registered user

 Actions

Dezful Airport

From SKYbrary Wiki

OIAD
Airport
ICAO: OIAD – IATA: DEF
Summary
Name Dezful Airport
Region Middle East
Territory Iran IR.gif
Location Dezful, Khuzestan
Serving Andimeshk
Elevation 144.475 m
474 ft144.475 m
Coordinates 32° 26' 19.78" N, 48° 23' 4.85" E
Runways
Designator Length Width Surface ROPS
14L/32R 3575 m11,729.003 ft
45 m147.638 ft
ASP /
14R/32L 3853 m12,641.076 ft
35 m114.829 ft
ASP /


METAR
Observation OIAD 111100Z 20006KT 7000 NSC 44/11 Q0999 A2950
Station DEZFUL (IRAN-AFB
Date/Time 11 August 2020 11:00:00
Wind direction 200°
Wind speed 06 kts
Lowest cloud amount nil significant cloud
Temperature 44°C
Dew point 11°C
Humidity 14%
QNH 999 hPa
Weather condition n/a

Airport serving Dezful and Andimeshk, Iran.

Climatology

Hot Semi-arid climate (Köppen climate classification BSh).

Maps

Terrain

Loading map...

Airport Layout

Loading map...


Accidents & Serious Incidents at or in vicinity of OIAD

None on SKYbrary